Sunday, July 22, 2018, 4:15 PM GMT
Back to Local

CYGR, Iles De La Madeleineque.

Location: , , Canada Lat: 47.417
Local Time: 4:15 PM GMT (16:15 GMT) Lon: -61.783
Time Zone: GMT Elev: 32 ft

Show me the last for .
Show Decoded

2018-07-22 16:00 METAR CYGR 221600Z 25011KT 15SM OVC011 23/19 A3026 RMK SC8 SLP250 DENSITY ALT
                 600FT =
2018-07-22 15:44 METAR CYGR 221544Z 23010KT 10SM BKN009 OVC025 23/19 A3026 RMK SC7SC1 SLP250
                 DENSITY ALT 600FT =
2018-07-22 15:00 METAR CYGR 221500Z 22008KT 10SM BKN010 OVC026 23/20 A3026 RMK SC6SC2 SLP248
                 DENSITY ALT 600FT =
2018-07-22 14:51 METAR CYGR 221451Z 23007KT 220V290 10SM BKN010 OVC025 23/20 A3026 RMK SC6SC2
                 SLP249 DENSITY ALT 600FT =
2018-07-22 14:43 METAR CYGR 221443Z 25005KT 220V330 10SM FEW008 OVC026 23/20 A3026 RMK SC2SC6
                 SLP249 DENSITY ALT 600FT =
2018-07-22 14:00 METAR CYGR 221400Z 29008KT 10SM FEW006 BKN026 23/20 A3025 RMK SC1SC6 SLP245
                 DENSITY ALT 600FT =
2018-07-22 13:00 METAR CYGR 221300Z 28008KT 10SM FEW005 SCT008 SCT015 SCT270 22/20 A3024 RMK
                 SC1SC2SC1CI1 CI TR SLP241 DENSITY ALT 500FT =
2018-07-22 12:39 METAR CYGR 221239Z 28008KT 10SM FEW005 BKN008 21/19 A3023 RMK SC2SC5 VIS LWR E
                 SLP238 DENSITY ALT 500FT =
2018-07-22 12:13 METAR CYGR 221213Z 26005KT 6SM BR OVC005 21/19 A3023 RMK SC8 SLP238 DENSITY ALT
                 400FT =
2018-07-22 12:00 METAR CYGR 221200Z 21003KT 5SM BR OVC004 20/19 A3023 RMK SF8 SLP237 DENSITY ALT
                 300FT =
2018-07-22 11:00 METAR CYGR 221100Z 20005KT 5SM BR OVC003 19/18 A3022 RMK SF8 SLP234 DENSITY ALT
                 200FT =
2018-07-22 10:00 METAR CYGR 221000Z 19004KT 4SM BR OVC004 18/18 A3021 RMK SF8 SLP231 DENSITY ALT
                 100FT =
2018-07-22 09:33 METAR CYGR 220933Z 20003KT 5SM BR BKN004 BKN012 18/17 A3020 RMK SF5SC2 SLP229
                 DENSITY ALT 100FT =
2018-07-22 09:00 METAR CYGR 220900Z 22004KT 2 1/2SM BR BKN004 OVC015 18/17 A3020 RMK FG1SF6SC1
                 SLP228 DENSITY ALT 100FT =
2018-07-22 02:00 METAR CYGR 220200Z 14013G18KT 15SM BKN014 17/16 A3020 RMK SC7 LAST STFD OBS/NEXT
                 220900 UTC SLP229 DENSITY ALT 100FT =
2018-07-22 01:00 METAR CYGR 220100Z 13012KT 15SM BKN015 17/16 A3020 RMK SC7 SLP228 =
2018-07-22 00:00 METAR CYGR 220000Z 13013KT 15SM OVC015 17/16 A3020 RMK SC8 SLP229 =
2018-07-21 23:00 METAR CYGR 212300Z 13014KT 6SM -RA BR OVC021 18/17 A3020 RMK SC8 SLP229 DENSITY
                 ALT 100FT =
2018-07-21 22:00 METAR CYGR 212200Z 12012G17KT 7SM -RA OVC018 18/17 A3021 RMK SC8 SLP233 DENSITY
                 ALT 100FT =
2018-07-21 21:50 METAR CYGR 212150Z 12013KT 15SM -RA OVC018 19/17 A3021 RMK SC8 SLP232 DENSITY
                 ALT 200FT =
2018-07-21 21:00 METAR CYGR 212100Z 11011KT 20SM OVC022 19/17 A3022 RMK SC8 SLP234 DENSITY ALT
                 300FT =
2018-07-21 20:00 METAR CYGR 212000Z 11010KT 20SM OVC026 20/17 A3023 RMK SC8 SLP239 DENSITY ALT
                 300FT =
2018-07-21 19:00 METAR CYGR 211900Z 11010KT 20SM BKN047 20/17 A3023 RMK SC7 SLP238 DENSITY ALT
                 400FT =
2018-07-21 18:00 METAR CYGR 211800Z 10009KT 20SM SCT033 BKN053 21/16 A3025 RMK SC4SC3 SLP245
                 DENSITY ALT 400FT =
2018-07-21 17:00 METAR CYGR 211700Z 11009KT 20SM BKN038 BKN270 21/15 A3026 RMK SC5CI1 SLP248
                 DENSITY ALT 400FT =

Support USWX by starting your Amazon purchase here.